Time;durP1;ratioP1;P1;durP2;ratioP2;P2;SDS_P1;SDS_P2;PMS_P1;PMS_P2;Temp;Humidity;BMP_temperature;BMP_pressure;BME280_temperature;BME280_humidity;BME280_pressure;Samples;Min_cycle;Max_cycle;Signal;HPM_P1;HPM_P2
2023/12/14 00:00:00;;;;;;;;;;;5.40;99.90;;;;;;5043952;28;20425;-80
2023/12/14 00:02:26;;;;;;;;;;;5.40;99.90;;;;;;5046083;28;19935;-81
2023/12/14 00:04:51;;;;;;;;;;;5.30;99.90;;;;;;5042921;28;19925;-80
2023/12/14 00:07:17;;;;;;;;;;;5.30;99.90;;;;;;5047802;28;20059;-80
2023/12/14 00:09:43;;;;;;;;;;;5.30;99.90;;;;;;5039718;28;19916;-80
2023/12/14 00:12:08;;;;;;;;;;;5.30;99.90;;;;;;5042102;28;20010;-80
2023/12/14 00:14:34;;;;;;;;;;;5.30;99.90;;;;;;5042783;28;20345;-80
2023/12/14 00:16:59;;;;;;;;;;;5.20;99.90;;;;;;5040919;28;19956;-80
2023/12/14 00:19:25;;;;;;;;;;;5.20;99.90;;;;;;5042153;28;20646;-80
2023/12/14 00:21:51;;;;;;;;;;;5.20;99.90;;;;;;5048968;28;19925;-79
2023/12/14 00:24:17;;;;;;;;;;;5.20;99.90;;;;;;5048195;28;19913;-80
2023/12/14 00:26:42;;;;;;;;;;;5.10;99.90;;;;;;5042804;28;19983;-79
2023/12/14 00:29:08;;;;;;;;;;;5.10;99.90;;;;;;5048258;28;19924;-79
2023/12/14 00:31:33;;;;;;;;;;;5.10;99.90;;;;;;5046836;28;19917;-81
2023/12/14 00:33:59;;;;;;;;;;;5.10;99.90;;;;;;5045020;28;19925;-80
2023/12/14 00:36:25;;;;;;;;;;;5.10;99.90;;;;;;5044138;28;19921;-80
2023/12/14 00:38:50;;;;;;;;;;;5.10;99.90;;;;;;5047601;28;20003;-79
2023/12/14 00:41:16;;;;;;;;;;;5.10;99.90;;;;;;5044033;28;19920;-80
2023/12/14 00:43:42;;;;;;;;;;;5.10;99.90;;;;;;5044450;28;19912;-79
2023/12/14 00:46:08;;;;;;;;;;;5.20;99.90;;;;;;5049467;28;19924;-80
2023/12/14 00:48:33;;;;;;;;;;;5.20;99.90;;;;;;5047517;28;20285;-80
2023/12/14 00:50:59;;;;;;;;;;;5.20;99.90;;;;;;5049235;28;19944;-80
2023/12/14 00:53:24;;;;;;;;;;;5.20;99.90;;;;;;5044992;28;20015;-80
2023/12/14 00:55:50;;;;;;;;;;;5.20;99.90;;;;;;5046341;28;19963;-80
2023/12/14 00:58:16;;;;;;;;;;;5.30;99.90;;;;;;5048812;28;19917;-80
2023/12/14 01:00:41;;;;;;;;;;;5.30;99.90;;;;;;5046400;28;20051;-80
2023/12/14 01:03:07;;;;;;;;;;;5.30;99.90;;;;;;5044121;28;19913;-81
2023/12/14 01:05:32;;;;;;;;;;;5.30;99.90;;;;;;5040771;28;20299;-80
2023/12/14 01:07:58;;;;;;;;;;;5.30;99.90;;;;;;5045034;28;19921;-79
2023/12/14 01:10:24;;;;;;;;;;;5.30;99.90;;;;;;5043161;28;20377;-80
2023/12/14 01:12:50;;;;;;;;;;;5.30;99.90;;;;;;5041512;28;20003;-79
2023/12/14 01:15:15;;;;;;;;;;;5.30;99.90;;;;;;5042843;28;19928;-81
2023/12/14 01:17:41;;;;;;;;;;;5.30;99.90;;;;;;5040661;28;19924;-81
2023/12/14 01:20:07;;;;;;;;;;;5.30;99.90;;;;;;5046416;28;20017;-80
2023/12/14 01:22:33;;;;;;;;;;;5.30;99.90;;;;;;5043526;28;19917;-79
2023/12/14 01:24:59;;;;;;;;;;;5.30;99.90;;;;;;5045469;28;19924;-80
2023/12/14 01:27:24;;;;;;;;;;;5.30;99.90;;;;;;5049170;28;19921;-80
2023/12/14 01:29:50;;;;;;;;;;;5.30;99.90;;;;;;5044864;28;20002;-79
2023/12/14 01:32:16;;;;;;;;;;;5.30;99.90;;;;;;5046292;28;19913;-80
2023/12/14 01:34:41;;;;;;;;;;;5.30;99.90;;;;;;5048149;28;19924;-79
2023/12/14 01:37:07;;;;;;;;;;;5.30;99.90;;;;;;5045628;28;19925;-79
2023/12/14 01:39:33;;;;;;;;;;;5.30;99.90;;;;;;5046572;28;19927;-80
2023/12/14 01:41:58;;;;;;;;;;;5.30;99.90;;;;;;5047976;28;20391;-80
2023/12/14 01:44:24;;;;;;;;;;;5.30;99.90;;;;;;5052327;28;19994;-79
2023/12/14 01:46:50;;;;;;;;;;;5.30;99.90;;;;;;5045064;28;19925;-79
2023/12/14 01:49:15;;;;;;;;;;;5.30;99.90;;;;;;5048508;28;19913;-80
2023/12/14 01:51:41;;;;;;;;;;;5.30;99.90;;;;;;5049402;28;19963;-79
2023/12/14 01:54:06;;;;;;;;;;;5.30;99.90;;;;;;5045546;28;19920;-79
2023/12/14 01:56:32;;;;;;;;;;;5.30;99.90;;;;;;5049711;28;19924;-80
2023/12/14 01:58:57;;;;;;;;;;;5.30;99.90;;;;;;5052923;28;20645;-79
2023/12/14 02:01:28;;;;;;;;;;;5.40;99.90;;;;;;5042920;28;19925;-79
2023/12/14 02:03:54;;;;;;;;;;;5.40;99.90;;;;;;5046438;28;19928;-79
2023/12/14 02:06:20;;;;;;;;;;;5.40;99.90;;;;;;5050722;28;19917;-79
2023/12/14 02:08:45;;;;;;;;;;;5.40;99.90;;;;;;5052515;28;19958;-79
2023/12/14 02:11:11;;;;;;;;;;;5.40;99.90;;;;;;5039730;28;19996;-80
2023/12/14 02:13:37;;;;;;;;;;;5.40;99.90;;;;;;5049165;28;20392;-79
2023/12/14 02:16:03;;;;;;;;;;;5.50;99.90;;;;;;5050107;28;19917;-79
2023/12/14 02:18:29;;;;;;;;;;;5.50;99.90;;;;;;5046144;28;19924;-79
2023/12/14 02:20:54;;;;;;;;;;;5.50;99.90;;;;;;5048997;28;19932;-79
2023/12/14 02:23:20;;;;;;;;;;;5.50;99.90;;;;;;5048332;28;19920;-79
2023/12/14 02:25:45;;;;;;;;;;;5.50;99.90;;;;;;5046685;28;19917;-79
2023/12/14 02:28:11;;;;;;;;;;;5.50;99.90;;;;;;5041686;28;19917;-80
2023/12/14 02:30:37;;;;;;;;;;;5.50;99.90;;;;;;5046490;28;20323;-79
2023/12/14 02:33:02;;;;;;;;;;;5.50;99.90;;;;;;5050251;28;19919;-80
2023/12/14 02:35:28;;;;;;;;;;;5.50;99.90;;;;;;5051249;28;19925;-79
2023/12/14 02:37:53;;;;;;;;;;;5.50;99.90;;;;;;5049831;28;20280;-80
2023/12/14 02:40:19;;;;;;;;;;;5.50;99.90;;;;;;5050032;28;19921;-79
2023/12/14 02:42:45;;;;;;;;;;;5.50;99.90;;;;;;5050976;28;20270;-79
2023/12/14 02:45:10;;;;;;;;;;;5.50;99.90;;;;;;5050861;28;20003;-80
2023/12/14 02:47:36;;;;;;;;;;;5.60;99.90;;;;;;5050849;28;19921;-78
2023/12/14 02:50:02;;;;;;;;;;;5.50;99.90;;;;;;5049704;28;19924;-79
2023/12/14 02:52:28;;;;;;;;;;;5.50;99.90;;;;;;5049673;28;20050;-79
2023/12/14 02:54:53;;;;;;;;;;;5.50;99.90;;;;;;5047632;28;19954;-79
2023/12/14 02:57:19;;;;;;;;;;;5.60;99.90;;;;;;5042765;28;19913;-79
2023/12/14 02:59:44;;;;;;;;;;;5.50;99.90;;;;;;5048377;28;20384;-79
2023/12/14 03:02:10;;;;;;;;;;;5.60;99.90;;;;;;5046158;28;20432;-79
2023/12/14 03:04:39;;;;;;;;;;;5.60;99.90;;;;;;5050089;28;19916;-79
2023/12/14 03:07:05;;;;;;;;;;;5.60;99.90;;;;;;5049169;28;19920;-80
2023/12/14 03:09:31;;;;;;;;;;;5.60;99.90;;;;;;5048992;28;19909;-79
2023/12/14 03:11:56;;;;;;;;;;;5.60;99.90;;;;;;5042209;28;19917;-79
2023/12/14 03:14:22;;;;;;;;;;;5.60;99.90;;;;;;5030696;28;19917;-80
2023/12/14 03:16:48;;;;;;;;;;;5.60;99.90;;;;;;5043126;28;19913;-80
2023/12/14 03:19:15;;;;;;;;;;;5.60;99.90;;;;;;5047168;28;19960;-79
2023/12/14 03:21:41;;;;;;;;;;;5.60;99.90;;;;;;5049549;28;19927;-80
2023/12/14 03:24:07;;;;;;;;;;;5.60;99.90;;;;;;5048055;28;19913;-80
2023/12/14 03:26:33;;;;;;;;;;;5.60;99.90;;;;;;5049221;28;19999;-80
2023/12/14 03:28:58;;;;;;;;;;;5.60;99.90;;;;;;5048039;28;19917;-79
2023/12/14 03:31:24;;;;;;;;;;;5.60;99.90;;;;;;5043877;28;19917;-80
2023/12/14 03:33:49;;;;;;;;;;;5.50;99.90;;;;;;5049298;28;19925;-79
2023/12/14 03:36:15;;;;;;;;;;;5.60;99.90;;;;;;5047061;28;19917;-79
2023/12/14 03:38:40;;;;;;;;;;;5.60;99.90;;;;;;5046477;28;20296;-79
2023/12/14 03:41:06;;;;;;;;;;;5.60;99.90;;;;;;5049527;28;20015;-79
2023/12/14 03:43:32;;;;;;;;;;;5.50;99.90;;;;;;5050775;28;20327;-80
2023/12/14 03:45:58;;;;;;;;;;;5.50;99.90;;;;;;5047852;28;19913;-80
2023/12/14 03:48:23;;;;;;;;;;;5.50;99.90;;;;;;5027400;28;19928;-80
2023/12/14 03:50:52;;;;;;;;;;;5.60;99.90;;;;;;5049135;28;19952;-80
2023/12/14 03:53:17;;;;;;;;;;;5.50;99.90;;;;;;5053738;28;20047;-80
2023/12/14 03:55:43;;;;;;;;;;;5.50;99.90;;;;;;5048632;28;19999;-79
2023/12/14 03:58:09;;;;;;;;;;;5.50;99.90;;;;;;5046047;28;20012;-80
2023/12/14 04:00:34;;;;;;;;;;;5.50;99.90;;;;;;5046160;28;19921;-80
2023/12/14 04:03:00;;;;;;;;;;;5.50;99.90;;;;;;5047945;28;20402;-79
2023/12/14 04:05:25;;;;;;;;;;;5.50;99.90;;;;;;5046536;28;19992;-80
2023/12/14 04:07:51;;;;;;;;;;;5.60;99.90;;;;;;5040184;28;19924;-79
2023/12/14 04:10:17;;;;;;;;;;;5.60;99.90;;;;;;5046738;28;19959;-80
2023/12/14 04:12:43;;;;;;;;;;;5.50;99.90;;;;;;5050272;28;19917;-80
2023/12/14 04:15:09;;;;;;;;;;;5.50;99.90;;;;;;5043882;28;20456;-79
2023/12/14 04:17:35;;;;;;;;;;;5.50;99.90;;;;;;5048430;28;20019;-80
2023/12/14 04:20:00;;;;;;;;;;;5.50;99.90;;;;;;5044288;28;19953;-80
2023/12/14 04:22:26;;;;;;;;;;;5.50;99.90;;;;;;5048848;28;19932;-80
2023/12/14 04:24:52;;;;;;;;;;;5.50;99.90;;;;;;5047616;28;19965;-80
2023/12/14 04:27:17;;;;;;;;;;;5.50;99.90;;;;;;5045581;28;19924;-80
2023/12/14 04:29:43;;;;;;;;;;;5.50;99.90;;;;;;5047798;28;19917;-79
2023/12/14 04:32:09;;;;;;;;;;;5.50;99.90;;;;;;5029857;28;19920;-80
2023/12/14 04:34:34;;;;;;;;;;;5.50;99.90;;;;;;5043110;28;20487;-80
2023/12/14 04:37:00;;;;;;;;;;;5.50;99.90;;;;;;5040254;28;20012;-80
2023/12/14 04:39:26;;;;;;;;;;;5.50;99.90;;;;;;5045370;28;19945;-79
2023/12/14 04:41:54;;;;;;;;;;;5.50;99.90;;;;;;5044530;28;19913;-80
2023/12/14 04:44:21;;;;;;;;;;;5.50;99.90;;;;;;5042233;28;19921;-80
2023/12/14 04:46:47;;;;;;;;;;;5.50;99.90;;;;;;5046730;28;20007;-80
2023/12/14 04:49:12;;;;;;;;;;;5.40;99.90;;;;;;5043748;28;19913;-80
2023/12/14 04:51:38;;;;;;;;;;;5.40;99.90;;;;;;5044761;28;20008;-79
2023/12/14 04:54:04;;;;;;;;;;;5.40;99.90;;;;;;5047140;28;19917;-79
2023/12/14 04:56:29;;;;;;;;;;;5.40;99.90;;;;;;5045734;28;19932;-80
2023/12/14 04:58:55;;;;;;;;;;;5.40;99.90;;;;;;5044862;28;19913;-79
2023/12/14 05:01:21;;;;;;;;;;;5.40;99.90;;;;;;5044972;28;20376;-80
2023/12/14 05:03:46;;;;;;;;;;;5.40;99.90;;;;;;5044932;28;19917;-80
2023/12/14 05:06:12;;;;;;;;;;;5.40;99.90;;;;;;5047565;28;19920;-80
2023/12/14 05:08:38;;;;;;;;;;;5.40;99.90;;;;;;5042384;28;19925;-79
2023/12/14 05:11:04;;;;;;;;;;;5.40;99.90;;;;;;5047641;28;19996;-80
2023/12/14 05:13:29;;;;;;;;;;;5.40;99.90;;;;;;5044288;28;20474;-79
2023/12/14 05:15:57;;;;;;;;;;;5.40;99.90;;;;;;5042647;28;19909;-80
2023/12/14 05:18:23;;;;;;;;;;;5.40;99.90;;;;;;5046358;28;20003;-80
2023/12/14 05:20:49;;;;;;;;;;;5.40;99.90;;;;;;5041237;28;19948;-79
2023/12/14 05:23:14;;;;;;;;;;;5.40;99.90;;;;;;5048580;28;19913;-79
2023/12/14 05:25:40;;;;;;;;;;;5.40;99.90;;;;;;5037688;28;19944;-78
2023/12/14 05:28:05;;;;;;;;;;;5.40;99.90;;;;;;5045991;28;20489;-79
2023/12/14 05:30:31;;;;;;;;;;;5.40;99.90;;;;;;5040702;28;19920;-79
2023/12/14 05:32:57;;;;;;;;;;;5.40;99.90;;;;;;5049774;28;20288;-79
2023/12/14 05:35:22;;;;;;;;;;;5.40;99.90;;;;;;5046208;28;19916;-79
2023/12/14 05:37:48;;;;;;;;;;;5.40;99.90;;;;;;5046830;28;19970;-80
2023/12/14 05:40:14;;;;;;;;;;;5.40;99.90;;;;;;5048617;28;19912;-80
2023/12/14 05:42:39;;;;;;;;;;;5.40;99.90;;;;;;5038841;28;20304;-81
2023/12/14 05:45:05;;;;;;;;;;;5.40;99.90;;;;;;5046809;28;20331;-80
2023/12/14 05:47:33;;;;;;;;;;;5.30;99.90;;;;;;5044502;28;19916;-79
2023/12/14 05:49:59;;;;;;;;;;;5.30;99.90;;;;;;5046271;28;20300;-80
2023/12/14 05:52:24;;;;;;;;;;;5.30;99.90;;;;;;5043776;28;19916;-80
2023/12/14 05:54:50;;;;;;;;;;;5.30;99.90;;;;;;5044786;28;19927;-80
2023/12/14 05:57:16;;;;;;;;;;;5.30;99.90;;;;;;5048237;28;19924;-79
2023/12/14 05:59:41;;;;;;;;;;;5.30;99.90;;;;;;5048319;28;19917;-78
2023/12/14 06:02:08;;;;;;;;;;;5.40;99.90;;;;;;5041253;28;19928;-79
2023/12/14 06:04:33;;;;;;;;;;;5.30;99.90;;;;;;5044131;28;19917;-78
2023/12/14 06:06:59;;;;;;;;;;;5.30;99.90;;;;;;5026922;28;19931;-80
2023/12/14 06:09:32;;;;;;;;;;;5.30;99.90;;;;;;5045044;28;19919;-80
2023/12/14 06:11:58;;;;;;;;;;;5.30;99.90;;;;;;5043088;28;20011;-79
2023/12/14 06:14:23;;;;;;;;;;;5.30;99.90;;;;;;5045523;28;19963;-80
2023/12/14 06:16:49;;;;;;;;;;;5.30;99.90;;;;;;5063203;28;20604;-79
2023/12/14 06:19:14;;;;;;;;;;;5.30;99.90;;;;;;5045346;28;19945;-80
2023/12/14 06:21:40;;;;;;;;;;;5.30;99.90;;;;;;5047465;28;19920;-80
2023/12/14 06:24:06;;;;;;;;;;;5.30;99.90;;;;;;5045354;28;19921;-79
2023/12/14 06:26:31;;;;;;;;;;;5.30;99.90;;;;;;5047315;28;20521;-79
2023/12/14 06:28:57;;;;;;;;;;;5.30;99.90;;;;;;5053646;28;19916;-79
2023/12/14 06:31:23;;;;;;;;;;;5.40;99.90;;;;;;5049812;28;19929;-79
2023/12/14 06:33:49;;;;;;;;;;;5.30;99.90;;;;;;5049837;28;20373;-80
2023/12/14 06:36:20;;;;;;;;;;;5.30;99.90;;;;;;5051332;28;19916;-79
2023/12/14 06:38:45;;;;;;;;;;;5.30;99.90;;;;;;5046518;28;19913;-80
2023/12/14 06:41:21;;;;;;;;;;;5.30;99.90;;;;;;5043495;28;19917;-79
2023/12/14 06:43:46;;;;;;;;;;;5.30;99.90;;;;;;5048312;28;19935;-79
2023/12/14 06:46:12;;;;;;;;;;;5.30;99.90;;;;;;5046951;28;20401;-80
2023/12/14 06:48:38;;;;;;;;;;;5.30;99.90;;;;;;5048479;28;20285;-79
2023/12/14 06:51:04;;;;;;;;;;;5.30;99.90;;;;;;5056290;28;19920;-79
2023/12/14 06:53:30;;;;;;;;;;;5.30;99.90;;;;;;5048501;28;19927;-80
2023/12/14 06:55:55;;;;;;;;;;;5.30;99.90;;;;;;5047120;28;20384;-80
2023/12/14 06:58:21;;;;;;;;;;;5.30;99.90;;;;;;5032801;28;19928;-79
2023/12/14 07:00:47;;;;;;;;;;;5.30;99.90;;;;;;5046200;28;19917;-80
2023/12/14 07:03:13;;;;;;;;;;;5.40;99.90;;;;;;5046324;28;19923;-80
2023/12/14 07:05:39;;;;;;;;;;;5.30;99.90;;;;;;5047261;28;20328;-80
2023/12/14 07:08:04;;;;;;;;;;;5.30;99.90;;;;;;5043465;28;19913;-79
2023/12/14 07:10:30;;;;;;;;;;;5.30;99.90;;;;;;5046686;28;19975;-79
2023/12/14 07:12:56;;;;;;;;;;;5.30;99.90;;;;;;5049149;28;20027;-80
2023/12/14 07:15:21;;;;;;;;;;;5.30;99.90;;;;;;5049849;28;19909;-80
2023/12/14 07:17:47;;;;;;;;;;;5.30;99.90;;;;;;5049118;28;19986;-80
2023/12/14 07:20:13;;;;;;;;;;;5.30;99.90;;;;;;5047388;28;19923;-80
2023/12/14 07:22:38;;;;;;;;;;;5.30;99.90;;;;;;5043808;28;19928;-80
2023/12/14 07:25:04;;;;;;;;;;;5.30;99.90;;;;;;5047768;28;20483;-79
2023/12/14 07:27:30;;;;;;;;;;;5.30;99.90;;;;;;5044960;28;19975;-80
2023/12/14 07:29:55;;;;;;;;;;;5.40;99.90;;;;;;5050550;28;19924;-79
2023/12/14 07:32:21;;;;;;;;;;;5.30;99.90;;;;;;5050309;28;20011;-79
2023/12/14 07:34:47;;;;;;;;;;;5.40;99.90;;;;;;5048119;28;19924;-80
2023/12/14 07:37:13;;;;;;;;;;;5.30;99.90;;;;;;5047990;28;19913;-79
2023/12/14 07:39:38;;;;;;;;;;;5.30;99.90;;;;;;5050764;28;20299;-79
2023/12/14 07:42:05;;;;;;;;;;;5.30;99.90;;;;;;5045484;28;19913;-80
2023/12/14 07:44:30;;;;;;;;;;;5.30;99.90;;;;;;5048884;28;19917;-80
2023/12/14 07:46:58;;;;;;;;;;;5.40;99.90;;;;;;5047482;28;19959;-80
2023/12/14 07:49:23;;;;;;;;;;;5.40;99.90;;;;;;5044753;28;20037;-80
2023/12/14 07:51:49;;;;;;;;;;;5.40;99.90;;;;;;5050173;28;20361;-80
2023/12/14 07:54:15;;;;;;;;;;;5.50;99.90;;;;;;5042488;28;19913;-79
2023/12/14 07:56:40;;;;;;;;;;;5.50;99.90;;;;;;5048927;28;19913;-79
2023/12/14 07:59:07;;;;;;;;;;;5.50;99.90;;;;;;5048368;28;20007;-80
2023/12/14 08:01:33;;;;;;;;;;;5.40;99.90;;;;;;5043652;28;19921;-79
2023/12/14 08:03:59;;;;;;;;;;;5.40;99.90;;;;;;5046327;28;19913;-80
2023/12/14 08:06:25;;;;;;;;;;;5.40;99.90;;;;;;5049704;28;19920;-80
2023/12/14 08:08:51;;;;;;;;;;;5.40;99.90;;;;;;5046192;28;19917;-82
2023/12/14 08:11:16;;;;;;;;;;;5.40;99.90;;;;;;5048026;28;19992;-82
2023/12/14 08:13:42;;;;;;;;;;;5.50;99.90;;;;;;5050756;28;20288;-82
2023/12/14 08:16:11;;;;;;;;;;;5.50;99.90;;;;;;5048884;28;19970;-82
2023/12/14 08:18:37;;;;;;;;;;;5.50;99.90;;;;;;5049079;28;20008;-81
2023/12/14 08:21:03;;;;;;;;;;;5.50;99.90;;;;;;5039620;28;20035;-82
2023/12/14 08:23:30;;;;;;;;;;;5.50;99.90;;;;;;5048594;28;19924;-81
2023/12/14 08:25:56;;;;;;;;;;;5.50;99.90;;;;;;5048485;28;19917;-82
2023/12/14 08:28:23;;;;;;;;;;;5.50;99.90;;;;;;5051525;28;19909;-81
2023/12/14 08:30:48;;;;;;;;;;;5.50;99.90;;;;;;5033224;28;20003;-81
2023/12/14 08:33:14;;;;;;;;;;;5.50;99.90;;;;;;5035368;28;19967;-79
2023/12/14 08:35:40;;;;;;;;;;;5.60;99.90;;;;;;5050466;28;19921;-79
2023/12/14 08:38:05;;;;;;;;;;;5.60;99.90;;;;;;5052327;28;19968;-79
2023/12/14 08:40:31;;;;;;;;;;;5.60;99.90;;;;;;5045736;28;19931;-80
2023/12/14 08:42:57;;;;;;;;;;;5.60;99.90;;;;;;5051245;28;19932;-79
2023/12/14 08:45:22;;;;;;;;;;;5.60;99.90;;;;;;5047485;28;19917;-80
2023/12/14 08:47:48;;;;;;;;;;;5.60;99.90;;;;;;5049111;28;20027;-79
2023/12/14 08:50:14;;;;;;;;;;;5.60;99.90;;;;;;5052300;28;19917;-79
2023/12/14 08:52:39;;;;;;;;;;;5.60;99.90;;;;;;5046484;28;19928;-80
2023/12/14 08:55:05;;;;;;;;;;;5.70;99.90;;;;;;5052570;28;20535;-80
2023/12/14 08:57:31;;;;;;;;;;;5.70;99.90;;;;;;5050262;28;19924;-80
2023/12/14 08:59:56;;;;;;;;;;;5.80;99.90;;;;;;5050550;28;19921;-80
2023/12/14 09:02:22;;;;;;;;;;;5.80;99.90;;;;;;5052509;28;20441;-79
2023/12/14 09:04:48;;;;;;;;;;;5.80;99.90;;;;;;5052519;28;19917;-80
2023/12/14 09:07:13;;;;;;;;;;;5.80;99.90;;;;;;5049521;28;20317;-79
2023/12/14 09:09:39;;;;;;;;;;;5.80;99.90;;;;;;5049526;28;19917;-80
2023/12/14 09:12:04;;;;;;;;;;;5.80;99.90;;;;;;5052849;28;19920;-79
2023/12/14 09:14:30;;;;;;;;;;;5.90;99.90;;;;;;5054648;28;20272;-80
2023/12/14 09:16:56;;;;;;;;;;;5.90;99.90;;;;;;5048176;28;19917;-81
2023/12/14 09:19:21;;;;;;;;;;;5.90;99.90;;;;;;5051129;28;20010;-81
2023/12/14 09:21:47;;;;;;;;;;;5.90;99.90;;;;;;5052737;28;19917;-80
2023/12/14 09:24:12;;;;;;;;;;;5.90;99.90;;;;;;5050284;28;19917;-80
2023/12/14 09:26:38;;;;;;;;;;;6.00;99.90;;;;;;5046505;28;19917;-81
2023/12/14 09:29:04;;;;;;;;;;;6.00;99.90;;;;;;5048887;28;19921;-80
2023/12/14 09:31:29;;;;;;;;;;;6.00;99.90;;;;;;5053841;28;19920;-80
2023/12/14 09:33:55;;;;;;;;;;;6.00;99.90;;;;;;5051857;28;19920;-81
2023/12/14 09:36:20;;;;;;;;;;;6.00;99.90;;;;;;5042356;28;19921;-81
2023/12/14 09:38:47;;;;;;;;;;;6.10;99.90;;;;;;5052095;28;19943;-80
2023/12/14 09:41:13;;;;;;;;;;;6.10;99.90;;;;;;5051231;28;19928;-80
2023/12/14 09:43:38;;;;;;;;;;;6.10;99.90;;;;;;5051392;28;19921;-81
2023/12/14 09:46:04;;;;;;;;;;;6.10;99.90;;;;;;5044682;28;20281;-80
2023/12/14 09:48:31;;;;;;;;;;;6.10;99.90;;;;;;5050071;28;19952;-80
2023/12/14 09:50:56;;;;;;;;;;;6.10;99.90;;;;;;5043762;28;20502;-80
2023/12/14 09:53:22;;;;;;;;;;;6.10;99.90;;;;;;5049862;28;19917;-80
2023/12/14 09:55:48;;;;;;;;;;;6.20;99.90;;;;;;5051472;28;19989;-81
2023/12/14 09:58:13;;;;;;;;;;;6.20;99.90;;;;;;5066252;28;19920;-82
2023/12/14 10:00:40;;;;;;;;;;;6.20;99.90;;;;;;5049606;28;20308;-81
2023/12/14 10:03:32;;;;;;;;;;;6.30;99.90;;;;;;5055398;28;20034;-80
2023/12/14 10:05:58;;;;;;;;;;;6.30;99.90;;;;;;5049003;28;19991;-80
2023/12/14 10:08:25;;;;;;;;;;;6.40;99.90;;;;;;5059065;28;19920;-81
2023/12/14 10:10:52;;;;;;;;;;;6.40;99.90;;;;;;5053532;28;19977;-80
2023/12/14 10:13:19;;;;;;;;;;;6.40;99.90;;;;;;5055651;28;19908;-82
2023/12/14 10:15:45;;;;;;;;;;;6.50;99.90;;;;;;5053553;28;19948;-81
2023/12/14 10:18:10;;;;;;;;;;;6.50;99.90;;;;;;5059349;28;19943;-81
2023/12/14 10:20:40;;;;;;;;;;;6.50;99.90;;;;;;5055580;28;19913;-81
2023/12/14 10:23:06;;;;;;;;;;;6.50;99.90;;;;;;5054072;28;19920;-81
2023/12/14 10:25:32;;;;;;;;;;;6.50;99.90;;;;;;5045737;28;19921;-81
2023/12/14 10:27:59;;;;;;;;;;;6.50;99.90;;;;;;5052844;28;19966;-81
2023/12/14 10:30:28;;;;;;;;;;;6.50;99.90;;;;;;5055232;28;19917;-80
2023/12/14 10:32:54;;;;;;;;;;;6.40;99.90;;;;;;5052352;28;20021;-81
2023/12/14 10:35:21;;;;;;;;;;;6.40;99.90;;;;;;5048857;28;19924;-80
2023/12/14 10:37:49;;;;;;;;;;;6.40;99.90;;;;;;5051515;28;20596;-81
2023/12/14 10:40:15;;;;;;;;;;;6.40;99.90;;;;;;5051313;28;19938;-81
2023/12/14 10:42:42;;;;;;;;;;;6.40;99.90;;;;;;5054537;28;20023;-81
2023/12/14 10:45:10;;;;;;;;;;;6.40;99.90;;;;;;5050783;28;19952;-82
2023/12/14 10:47:37;;;;;;;;;;;6.40;99.90;;;;;;5052842;28;19924;-80
2023/12/14 10:50:04;;;;;;;;;;;6.30;99.90;;;;;;5054636;28;20397;-81
2023/12/14 10:52:33;;;;;;;;;;;6.30;99.90;;;;;;5053825;28;19917;-81
2023/12/14 10:55:02;;;;;;;;;;;6.30;99.90;;;;;;5053669;28;19967;-81
2023/12/14 10:57:28;;;;;;;;;;;6.20;99.90;;;;;;5041647;28;19917;-81
2023/12/14 11:00:00;;;;;;;;;;;6.20;99.90;;;;;;5053935;28;19913;-81
2023/12/14 11:02:26;;;;;;;;;;;6.20;99.90;;;;;;5049684;28;19982;-82
2023/12/14 11:05:00;;;;;;;;;;;6.10;99.90;;;;;;5053052;28;19913;-81
2023/12/14 11:07:42;;;;;;;;;;;6.10;99.90;;;;;;5050867;28;20277;-81
2023/12/14 11:10:09;;;;;;;;;;;6.10;99.90;;;;;;5057120;28;19913;-81
2023/12/14 11:12:34;;;;;;;;;;;6.10;99.90;;;;;;5056287;28;19980;-81
2023/12/14 11:15:00;;;;;;;;;;;6.10;99.90;;;;;;5057002;28;19971;-81
2023/12/14 11:17:29;;;;;;;;;;;6.10;99.90;;;;;;5061765;28;19962;-82
2023/12/14 11:19:54;;;;;;;;;;;6.10;99.90;;;;;;5049948;28;19932;-80
2023/12/14 11:22:24;;;;;;;;;;;6.00;99.90;;;;;;5050168;28;20320;-81
2023/12/14 11:24:51;;;;;;;;;;;6.00;99.90;;;;;;5049962;28;20355;-80
2023/12/14 11:27:19;;;;;;;;;;;6.00;99.90;;;;;;5050443;28;19924;-82
2023/12/14 11:29:47;;;;;;;;;;;6.00;99.90;;;;;;5048442;28;21334;-81
2023/12/14 11:32:13;;;;;;;;;;;6.00;99.90;;;;;;5052085;28;19951;-80
2023/12/14 11:34:41;;;;;;;;;;;6.00;99.90;;;;;;5052851;28;20444;-80
2023/12/14 11:37:07;;;;;;;;;;;6.00;99.90;;;;;;5051114;28;20407;-81
2023/12/14 11:39:33;;;;;;;;;;;6.00;99.90;;;;;;5053250;28;20015;-80
2023/12/14 11:42:02;;;;;;;;;;;5.90;99.90;;;;;;5055721;28;19921;-80
2023/12/14 11:44:27;;;;;;;;;;;6.00;99.90;;;;;;5055530;28;19988;-80
2023/12/14 11:46:54;;;;;;;;;;;6.00;99.90;;;;;;5044108;28;20011;-80
2023/12/14 11:49:19;;;;;;;;;;;6.00;99.90;;;;;;5049606;28;19966;-81
2023/12/14 11:51:46;;;;;;;;;;;6.00;99.90;;;;;;5051234;28;20330;-80
2023/12/14 11:54:12;;;;;;;;;;;5.90;99.90;;;;;;5049922;28;19917;-80
2023/12/14 11:56:38;;;;;;;;;;;6.00;99.90;;;;;;5067883;28;19917;-81
2023/12/14 11:59:04;;;;;;;;;;;6.00;99.90;;;;;;5055780;28;19924;-80
2023/12/14 12:01:31;;;;;;;;;;;6.00;99.90;;;;;;5054785;28;19929;-80
2023/12/14 12:04:07;;;;;;;;;;;6.00;99.90;;;;;;5035961;28;19921;-79
2023/12/14 12:06:33;;;;;;;;;;;6.00;99.90;;;;;;5048403;28;19920;-80
2023/12/14 12:08:59;;;;;;;;;;;6.00;99.90;;;;;;5051118;28;19917;-80
2023/12/14 12:11:25;;;;;;;;;;;6.00;99.90;;;;;;5051005;28;19912;-80
2023/12/14 12:13:51;;;;;;;;;;;6.00;99.90;;;;;;5055325;28;19923;-80
2023/12/14 12:16:17;;;;;;;;;;;6.00;99.90;;;;;;5051509;28;19913;-81
2023/12/14 12:18:42;;;;;;;;;;;6.00;99.90;;;;;;5048392;28;19928;-80
2023/12/14 12:21:09;;;;;;;;;;;6.00;99.90;;;;;;5053885;28;19917;-80
2023/12/14 12:23:35;;;;;;;;;;;6.10;99.90;;;;;;5056418;28;19939;-80
2023/12/14 12:26:19;;;;;;;;;;;6.00;99.90;;;;;;5053571;28;19951;-80
2023/12/14 12:28:47;;;;;;;;;;;6.00;99.90;;;;;;5049966;28;19921;-80
2023/12/14 12:31:13;;;;;;;;;;;6.00;99.90;;;;;;5057563;28;19920;-80
2023/12/14 12:33:39;;;;;;;;;;;6.00;99.90;;;;;;5057959;28;19981;-80
2023/12/14 12:36:05;;;;;;;;;;;6.10;99.90;;;;;;5054055;28;19952;-80
2023/12/14 12:38:31;;;;;;;;;;;6.00;99.90;;;;;;5056279;28;19945;-80
2023/12/14 12:40:56;;;;;;;;;;;6.00;99.90;;;;;;5054028;28;19916;-80
2023/12/14 12:43:22;;;;;;;;;;;5.90;99.90;;;;;;5060593;28;19924;-80
2023/12/14 12:45:49;;;;;;;;;;;5.90;99.90;;;;;;5050407;28;20389;-80
2023/12/14 12:48:14;;;;;;;;;;;5.90;99.90;;;;;;5049895;28;19920;-81
2023/12/14 12:50:40;;;;;;;;;;;5.90;99.90;;;;;;5049040;28;20374;-80
2023/12/14 12:53:05;;;;;;;;;;;5.90;99.90;;;;;;5053800;28;19916;-80
2023/12/14 12:55:31;;;;;;;;;;;5.90;99.90;;;;;;5056353;28;20194;-80
2023/12/14 12:57:58;;;;;;;;;;;5.90;99.90;;;;;;5052255;28;19917;-80
2023/12/14 13:00:23;;;;;;;;;;;5.80;99.90;;;;;;5049555;28;20414;-80
2023/12/14 13:02:49;;;;;;;;;;;5.80;99.90;;;;;;5049448;28;19975;-80
2023/12/14 13:05:14;;;;;;;;;;;5.90;99.90;;;;;;5049323;28;19968;-80
2023/12/14 13:07:44;;;;;;;;;;;5.80;99.90;;;;;;5055196;28;19921;-80
2023/12/14 13:10:10;;;;;;;;;;;5.80;99.90;;;;;;5055929;28;20300;-80
2023/12/14 13:12:35;;;;;;;;;;;5.80;99.90;;;;;;5035543;28;19923;-80
2023/12/14 13:15:01;;;;;;;;;;;5.80;99.90;;;;;;5054214;28;19940;-81
2023/12/14 13:17:27;;;;;;;;;;;5.80;99.90;;;;;;5052228;28;19917;-80
2023/12/14 13:19:52;;;;;;;;;;;5.80;99.90;;;;;;5049998;28;20395;-81
2023/12/14 13:22:18;;;;;;;;;;;5.80;99.90;;;;;;5052044;28;19928;-80
2023/12/14 13:24:44;;;;;;;;;;;5.80;99.90;;;;;;5051342;28;19920;-81
2023/12/14 13:27:10;;;;;;;;;;;5.80;99.90;;;;;;5051130;28;19994;-81
2023/12/14 13:29:36;;;;;;;;;;;5.80;99.90;;;;;;5047980;28;20375;-80
2023/12/14 13:32:01;;;;;;;;;;;5.80;99.90;;;;;;5048919;28;19917;-81
2023/12/14 13:34:30;;;;;;;;;;;5.80;99.90;;;;;;5054294;28;19964;-81
2023/12/14 13:36:56;;;;;;;;;;;5.90;99.90;;;;;;5059482;28;19936;-80
2023/12/14 13:39:22;;;;;;;;;;;5.90;99.90;;;;;;5052814;28;19948;-79
2023/12/14 13:41:48;;;;;;;;;;;5.90;99.90;;;;;;5047717;28;19928;-80
2023/12/14 13:44:14;;;;;;;;;;;5.90;99.90;;;;;;5046692;28;19916;-81
2023/12/14 13:46:39;;;;;;;;;;;5.90;99.90;;;;;;5052800;28;19917;-79
2023/12/14 13:49:05;;;;;;;;;;;5.90;99.90;;;;;;5052436;28;19917;-80
2023/12/14 13:51:30;;;;;;;;;;;5.90;99.90;;;;;;5046444;28;19928;-81
2023/12/14 13:53:56;;;;;;;;;;;5.90;99.90;;;;;;5052812;28;19921;-80
2023/12/14 13:56:22;;;;;;;;;;;5.90;99.90;;;;;;5050683;28;19965;-80
2023/12/14 13:58:48;;;;;;;;;;;5.90;99.90;;;;;;5045968;28;19960;-80
2023/12/14 14:01:13;;;;;;;;;;;5.90;99.90;;;;;;5048075;28;19991;-78
2023/12/14 14:03:41;;;;;;;;;;;5.90;99.90;;;;;;5052535;28;19916;-78
2023/12/14 14:06:06;;;;;;;;;;;5.90;99.90;;;;;;5051707;28;19939;-81
2023/12/14 14:08:32;;;;;;;;;;;5.90;99.90;;;;;;5054011;28;19921;-79
2023/12/14 14:10:58;;;;;;;;;;;5.90;99.90;;;;;;5047348;28;19913;-80
2023/12/14 14:13:24;;;;;;;;;;;5.90;99.90;;;;;;5051605;28;20269;-80
2023/12/14 14:15:49;;;;;;;;;;;5.90;99.90;;;;;;5048186;28;19913;-80
2023/12/14 14:18:15;;;;;;;;;;;5.90;99.90;;;;;;5051044;28;19917;-79
2023/12/14 14:20:40;;;;;;;;;;;5.90;99.90;;;;;;5048186;28;20000;-79
2023/12/14 14:23:06;;;;;;;;;;;5.90;99.90;;;;;;5047976;28;19921;-79